createdAt,value
2018-07-30T00:00:43.365Z,14.63
2018-07-30T00:03:14.374Z,13.27
2018-07-30T00:05:44.994Z,14.37
2018-07-30T00:08:15.981Z,11.80
2018-07-30T00:10:46.601Z,13.77
2018-07-30T00:13:17.340Z,17.30
2018-07-30T00:15:47.918Z,17.30
2018-07-30T00:18:18.736Z,14.00
2018-07-30T00:20:49.437Z,11.67
2018-07-30T00:23:20.055Z,15.07
2018-07-30T00:25:50.653Z,11.77
2018-07-30T00:28:21.550Z,13.50
2018-07-30T00:30:52.277Z,15.17
2018-07-30T00:33:23.153Z,18.63
2018-07-30T00:35:53.842Z,13.03
2018-07-30T00:38:24.505Z,12.93
2018-07-30T00:40:55.212Z,12.07
2018-07-30T00:43:26.786Z,13.83
2018-07-30T00:45:57.672Z,12.20
2018-07-30T00:48:28.553Z,12.07
2018-07-30T00:50:59.048Z,12.23
2018-07-30T00:53:29.660Z,11.03
2018-07-30T00:56:00.181Z,12.27
2018-07-30T00:58:30.993Z,12.60
2018-07-30T01:01:01.564Z,10.93
2018-07-30T01:03:32.290Z,13.60
2018-07-30T01:06:02.838Z,10.77
2018-07-30T01:08:33.474Z,12.10
2018-07-30T01:11:04.156Z,13.57
2018-07-30T01:13:34.987Z,13.97
2018-07-30T01:16:05.620Z,11.80
2018-07-30T01:18:36.467Z,12.37
2018-07-30T01:21:06.860Z,12.37
2018-07-30T01:23:37.756Z,14.03
2018-07-30T01:26:13.253Z,14.47
2018-07-30T01:28:43.960Z,13.83
2018-07-30T01:31:14.528Z,13.33
2018-07-30T01:33:45.686Z,12.60
2018-07-30T01:36:16.414Z,16.90
2018-07-30T01:38:47.197Z,18.33
2018-07-30T01:41:18.013Z,14.73
2018-07-30T01:43:48.721Z,14.87
2018-07-30T01:46:19.370Z,11.13
2018-07-30T01:48:50.052Z,12.33
2018-07-30T01:51:20.735Z,13.00
2018-07-30T01:53:51.354Z,11.60
2018-07-30T01:56:21.937Z,11.93
2018-07-30T01:58:52.461Z,12.30
2018-07-30T02:01:23.316Z,12.90
2018-07-30T02:03:54.457Z,15.37
2018-07-30T02:06:25.193Z,13.80
2018-07-30T02:08:55.825Z,14.67
2018-07-30T02:11:26.445Z,14.47
2018-07-30T02:13:57.232Z,12.50
2018-07-30T02:16:27.820Z,15.67
2018-07-30T02:18:58.580Z,13.80
2018-07-30T02:21:29.349Z,12.30
2018-07-30T02:23:59.615Z,11.90
2018-07-30T02:26:30.214Z,13.10
2018-07-30T02:29:01.338Z,12.57
2018-07-30T02:31:31.872Z,13.70
2018-07-30T02:34:02.440Z,11.03
2018-07-30T02:36:33.206Z,13.30
2018-07-30T02:39:04.056Z,12.73
2018-07-30T02:41:34.661Z,13.80
2018-07-30T02:44:05.279Z,16.27
2018-07-30T02:46:35.963Z,12.90
2018-07-30T02:49:07.041Z,12.20
2018-07-30T02:51:37.646Z,13.43
2018-07-30T02:54:08.729Z,12.43
2018-07-30T02:56:39.344Z,12.30
2018-07-30T02:59:10.136Z,15.43
2018-07-30T03:01:40.818Z,12.27
2018-07-30T03:04:11.758Z,14.10
2018-07-30T03:06:42.404Z,14.10
2018-07-30T03:09:13.110Z,13.87
2018-07-30T03:11:43.144Z,13.90
2018-07-30T03:14:13.953Z,13.20
2018-07-30T03:16:44.647Z,13.40
2018-07-30T03:19:15.526Z,15.27
2018-07-30T03:21:46.278Z,12.97
2018-07-30T03:24:17.437Z,12.27
2018-07-30T03:26:48.084Z,15.23
2018-07-30T03:29:18.925Z,13.70
2018-07-30T03:31:49.601Z,13.93
2018-07-30T03:34:20.481Z,12.23
2018-07-30T03:36:51.140Z,12.30
2018-07-30T03:39:21.973Z,13.27
2018-07-30T03:41:52.595Z,10.63
2018-07-30T03:44:23.697Z,11.73
2018-07-30T03:46:54.372Z,14.03
2018-07-30T03:49:25.307Z,17.97
2018-07-30T03:51:55.817Z,16.87
2018-07-30T03:54:26.480Z,12.80
2018-07-30T03:56:57.136Z,11.67
2018-07-30T03:59:27.976Z,12.33
2018-07-30T04:01:58.710Z,12.57
2018-07-30T04:04:29.593Z,13.10
2018-07-30T04:07:00.190Z,12.90
2018-07-30T04:09:31.012Z,13.17
2018-07-30T04:12:01.694Z,13.73
2018-07-30T04:14:32.356Z,14.77
2018-07-30T04:17:02.736Z,15.17
2018-07-30T04:19:33.532Z,14.13
2018-07-30T04:22:04.137Z,15.30
2018-07-30T04:24:34.773Z,16.47
2018-07-30T04:27:05.332Z,13.37
2018-07-30T04:29:36.104Z,13.87
2018-07-30T04:32:06.892Z,12.57
2018-07-30T04:34:37.524Z,12.63
2018-07-30T04:37:08.198Z,12.37
2018-07-30T04:39:39.181Z,12.70
2018-07-30T04:42:09.797Z,12.73
2018-07-30T04:44:40.566Z,17.00
2018-07-30T04:47:11.370Z,12.90
2018-07-30T04:49:41.912Z,12.33
2018-07-30T04:52:12.460Z,13.13
2018-07-30T04:54:43.126Z,14.30
2018-07-30T04:57:13.781Z,10.97
2018-07-30T04:59:44.412Z,14.07
2018-07-30T05:02:14.992Z,17.70
2018-07-30T05:04:45.098Z,12.07
2018-07-30T05:07:15.972Z,11.57
2018-07-30T05:09:46.596Z,12.37
2018-07-30T05:12:17.305Z,10.93
2018-07-30T05:14:47.965Z,11.93
2018-07-30T05:17:18.788Z,13.70
2018-07-30T05:19:49.753Z,9.80
2018-07-30T05:22:20.461Z,10.77
2018-07-30T05:24:51.253Z,13.27
2018-07-30T05:27:22.173Z,10.90
2018-07-30T05:29:52.893Z,14.53
2018-07-30T05:32:23.944Z,10.50
2018-07-30T05:34:54.632Z,20.47
2018-07-30T05:37:25.341Z,11.13
2018-07-30T05:39:56.065Z,11.23
2018-07-30T05:42:27.261Z,19.93
2018-07-30T05:44:57.885Z,10.43
2018-07-30T05:47:28.869Z,10.10
2018-07-30T05:49:59.520Z,10.00
2018-07-30T05:52:30.702Z,11.40
2018-07-30T05:55:01.387Z,15.77
2018-07-30T05:57:31.967Z,8.80
2018-07-30T06:00:02.478Z,8.33
2018-07-30T06:02:34.349Z,10.03
2018-07-30T06:05:06.599Z,9.37
2018-07-30T06:07:36.953Z,9.40
2018-07-30T06:10:07.985Z,9.07
2018-07-30T06:12:38.485Z,9.70
2018-07-30T06:15:09.385Z,7.97
2018-07-30T06:17:39.801Z,8.93
2018-07-30T06:20:11.898Z,15.07
2018-07-30T06:22:42.490Z,12.53
2018-07-30T06:25:13.235Z,10.00
2018-07-30T06:27:44.073Z,10.60
2018-07-30T06:30:14.649Z,8.90
2018-07-30T06:32:45.486Z,12.30
2018-07-30T06:35:16.181Z,10.40
2018-07-30T06:37:46.849Z,9.90
2018-07-30T06:40:17.257Z,11.50
2018-07-30T06:42:48.100Z,10.73
2018-07-30T06:45:18.692Z,10.50
2018-07-30T06:47:49.630Z,16.03
2018-07-30T06:50:19.877Z,15.03
2018-07-30T06:52:50.824Z,13.73
2018-07-30T06:55:21.430Z,13.23
2018-07-30T06:57:52.565Z,13.70
2018-07-30T07:00:23.196Z,12.97
2018-07-30T07:02:53.920Z,15.90
2018-07-30T07:05:24.560Z,17.20
2018-07-30T07:07:56.281Z,18.43
2018-07-30T07:10:26.792Z,11.53
2018-07-30T07:12:57.420Z,13.17
2018-07-30T07:15:28.037Z,11.77
2018-07-30T07:17:58.844Z,11.00
2018-07-30T07:20:29.542Z,12.97
2018-07-30T07:23:00.126Z,12.47
2018-07-30T07:25:30.840Z,14.00
2018-07-30T07:28:01.770Z,11.43
2018-07-30T07:30:32.458Z,11.63
2018-07-30T07:33:03.188Z,13.57
2018-07-30T07:35:33.689Z,11.50
2018-07-30T07:38:04.453Z,10.30
2018-07-30T07:40:35.137Z,12.53
2018-07-30T07:43:05.876Z,11.80
2018-07-30T07:45:36.569Z,11.87
2018-07-30T07:48:07.188Z,13.87
2018-07-30T07:50:37.940Z,11.70
2018-07-30T07:53:08.853Z,12.87
2018-07-30T07:55:39.437Z,12.43
2018-07-30T07:58:10.247Z,13.70
2018-07-30T08:00:40.993Z,10.03
2018-07-30T08:03:11.700Z,9.27
2018-07-30T08:05:42.223Z,10.80
2018-07-30T08:08:13.057Z,11.93
2018-07-30T08:10:43.689Z,10.60
2018-07-30T08:13:14.492Z,10.13
2018-07-30T08:15:45.197Z,10.27
2018-07-30T08:18:15.981Z,13.60
2018-07-30T08:20:46.402Z,9.63
2018-07-30T08:23:16.978Z,12.40
2018-07-30T08:25:47.625Z,11.85
2018-07-30T08:28:18.388Z,9.80
2018-07-30T08:30:49.047Z,10.68
2018-07-30T08:33:19.866Z,9.68
2018-07-30T08:35:50.514Z,9.38
2018-07-30T08:38:21.288Z,11.43
2018-07-30T08:40:51.928Z,10.15
2018-07-30T08:43:22.733Z,9.48
2018-07-30T08:45:53.443Z,11.08
2018-07-30T08:48:24.133Z,9.78
2018-07-30T08:50:54.761Z,8.68
2018-07-30T08:53:25.444Z,8.28
2018-07-30T08:55:56.095Z,8.78
2018-07-30T08:58:26.897Z,7.75
2018-07-30T09:00:57.238Z,7.87
2018-07-30T09:03:27.941Z,7.78
2018-07-30T09:05:58.254Z,7.83
2018-07-30T09:08:28.927Z,7.12
2018-07-30T09:10:59.270Z,6.97
2018-07-30T09:13:30.161Z,8.05
2018-07-30T09:16:00.816Z,6.92
2018-07-30T09:18:31.621Z,7.03
2018-07-30T09:21:01.893Z,7.05
2018-07-30T09:23:32.188Z,9.63
2018-07-30T09:26:02.541Z,8.55
2018-07-30T09:28:32.772Z,6.40
2018-07-30T09:31:03.597Z,7.50
2018-07-30T09:33:34.421Z,8.43
2018-07-30T09:36:05.226Z,9.15
2018-07-30T09:38:35.620Z,7.22
2018-07-30T09:41:06.148Z,7.35
2018-07-30T09:43:36.377Z,5.17
2018-07-30T09:46:08.134Z,8.70
2018-07-30T09:48:38.845Z,5.93
2018-07-30T09:51:10.523Z,7.40
2018-07-30T09:53:41.225Z,7.03
2018-07-30T09:56:11.712Z,5.40
2018-07-30T09:58:42.061Z,5.00
2018-07-30T10:01:17.545Z,5.53
2018-07-30T10:03:47.794Z,9.43
2018-07-30T10:06:18.181Z,3.83
2018-07-30T10:08:48.779Z,4.53
2018-07-30T10:11:19.577Z,4.07
2018-07-30T10:13:49.600Z,3.20
2018-07-30T10:16:20.369Z,3.33
2018-07-30T10:18:51.105Z,6.07
2018-07-30T10:21:21.781Z,3.53
2018-07-30T10:23:52.469Z,3.13
2018-07-30T10:26:23.481Z,4.77
2018-07-30T10:28:54.247Z,3.93
2018-07-30T10:31:25.153Z,3.87
2018-07-30T10:33:55.813Z,4.80
2018-07-30T10:36:26.643Z,4.63
2018-07-30T10:38:57.283Z,3.87
2018-07-30T10:41:27.873Z,5.90
2018-07-30T10:43:58.409Z,4.10
2018-07-30T10:46:29.071Z,4.47
2018-07-30T10:48:59.729Z,4.97
2018-07-30T10:51:30.315Z,3.93
2018-07-30T10:54:01.132Z,4.40
2018-07-30T10:56:31.822Z,5.33
2018-07-30T10:59:02.462Z,5.60
2018-07-30T11:01:33.438Z,2.43
2018-07-30T11:04:04.068Z,6.40
2018-07-30T11:06:34.596Z,4.27
2018-07-30T11:09:07.173Z,2.83
2018-07-30T11:11:37.840Z,4.83
2018-07-30T11:14:08.729Z,3.57
2018-07-30T11:16:39.640Z,2.90
2018-07-30T11:19:10.261Z,3.20
2018-07-30T11:21:41.112Z,3.60
2018-07-30T11:24:11.705Z,3.23
2018-07-30T11:26:42.476Z,4.70
2018-07-30T11:29:13.104Z,4.50
2018-07-30T11:31:44.109Z,3.37
2018-07-30T11:34:14.699Z,3.50
2018-07-30T11:36:45.467Z,4.87
2018-07-30T11:39:16.111Z,3.70
2018-07-30T11:41:46.848Z,3.13
2018-07-30T11:44:17.416Z,3.03
2018-07-30T11:46:48.138Z,2.87
2018-07-30T11:49:18.826Z,2.53
2018-07-30T11:51:49.509Z,2.50
2018-07-30T11:54:20.403Z,3.70
2018-07-30T11:56:50.918Z,2.67
2018-07-30T11:59:21.565Z,2.60
2018-07-30T12:01:52.297Z,4.10
2018-07-30T12:04:23.173Z,7.23
2018-07-30T12:06:53.860Z,4.43
2018-07-30T12:09:24.504Z,3.20
2018-07-30T12:11:55.338Z,3.07
2018-07-30T12:14:25.916Z,2.70
2018-07-30T12:16:56.637Z,2.63
2018-07-30T12:19:27.249Z,2.33
2018-07-30T12:21:57.849Z,2.40
2018-07-30T12:24:28.529Z,2.20
2018-07-30T12:26:59.152Z,4.73
2018-07-30T12:29:29.851Z,1.83
2018-07-30T12:32:00.699Z,3.13
2018-07-30T12:34:31.529Z,4.90
2018-07-30T12:37:02.209Z,2.43
2018-07-30T12:39:32.985Z,4.83
2018-07-30T12:42:05.113Z,2.00
2018-07-30T12:44:35.832Z,2.57
2018-07-30T12:47:07.288Z,2.30
2018-07-30T12:49:37.920Z,2.13
2018-07-30T12:52:08.594Z,3.73
2018-07-30T12:54:39.216Z,3.37
2018-07-30T12:57:09.685Z,1.97
2018-07-30T12:59:40.336Z,2.10
2018-07-30T13:02:11.262Z,4.43
2018-07-30T13:04:41.921Z,3.23
2018-07-30T13:07:12.800Z,3.17
2018-07-30T13:09:43.377Z,3.67
2018-07-30T13:12:14.180Z,4.00
2018-07-30T13:14:44.789Z,4.83
2018-07-30T13:17:15.658Z,2.50
2018-07-30T13:19:46.261Z,2.30
2018-07-30T13:22:17.045Z,11.70
2018-07-30T13:24:47.673Z,5.20
2018-07-30T13:27:18.810Z,5.83
2018-07-30T13:29:49.467Z,12.00
2018-07-30T13:32:20.380Z,22.10
2018-07-30T13:34:51.005Z,15.63
2018-07-30T13:37:21.913Z,38.00
2018-07-30T13:39:52.484Z,11.17
2018-07-30T13:42:23.220Z,7.80
2018-07-30T13:44:53.910Z,7.17
2018-07-30T13:47:24.709Z,11.03
2018-07-30T13:49:55.378Z,6.53
2018-07-30T13:52:26.069Z,7.23
2018-07-30T13:54:56.353Z,6.53
2018-07-30T13:57:27.105Z,16.57
2018-07-30T13:59:57.683Z,12.53
2018-07-30T14:02:28.345Z,15.13
2018-07-30T14:04:59.005Z,13.90
2018-07-30T14:07:29.918Z,8.20
2018-07-30T14:10:00.531Z,10.17
2018-07-30T14:12:31.270Z,13.70
2018-07-30T14:15:01.942Z,10.10
2018-07-30T14:17:32.685Z,18.93
2018-07-30T14:20:03.361Z,14.00
2018-07-30T14:22:34.039Z,16.13
2018-07-30T14:25:04.017Z,10.30
2018-07-30T14:27:34.762Z,12.33
2018-07-30T14:30:06.965Z,9.83
2018-07-30T14:32:37.540Z,5.77
2018-07-30T14:35:08.355Z,9.73
2018-07-30T14:37:38.896Z,5.80
2018-07-30T14:40:12.018Z,7.40
2018-07-30T14:42:43.244Z,8.50
2018-07-30T14:45:13.917Z,43.47
2018-07-30T14:47:44.745Z,5.93
2018-07-30T14:50:15.368Z,8.73
2018-07-30T14:52:46.185Z,4.47
2018-07-30T14:55:16.805Z,10.20
2018-07-30T14:57:47.576Z,16.37
2018-07-30T15:00:18.223Z,4.23
2018-07-30T15:02:49.068Z,4.07
2018-07-30T15:05:21.997Z,3.43
2018-07-30T15:07:52.991Z,6.33
2018-07-30T15:10:23.508Z,4.17
2018-07-30T15:12:54.501Z,6.20
2018-07-30T15:15:25.057Z,3.90
2018-07-30T15:17:56.077Z,4.63
2018-07-30T15:20:26.761Z,3.80
2018-07-30T15:22:57.452Z,3.97
2018-07-30T15:25:28.221Z,3.30
2018-07-30T15:27:59.767Z,3.30
2018-07-30T15:30:30.541Z,4.33
2018-07-30T15:33:01.537Z,3.02
2018-07-30T15:35:32.168Z,3.42
2018-07-30T15:38:03.137Z,3.55
2018-07-30T15:40:33.750Z,3.65
2018-07-30T15:43:04.500Z,14.93
2018-07-30T15:45:35.257Z,3.40
2018-07-30T15:48:06.049Z,2.95
2018-07-30T15:50:36.729Z,8.05
2018-07-30T15:53:07.586Z,3.90
2018-07-30T15:55:38.304Z,4.33
2018-07-30T15:58:09.174Z,8.87
2018-07-30T16:00:39.704Z,4.62
2018-07-30T16:03:10.508Z,6.37
2018-07-30T16:05:41.195Z,7.43
2018-07-30T16:08:11.876Z,5.47
2018-07-30T16:10:42.441Z,3.60
2018-07-30T16:13:13.128Z,3.43
2018-07-30T16:15:43.796Z,4.00
2018-07-30T16:18:14.686Z,3.67
2018-07-30T16:20:45.416Z,3.43
2018-07-30T16:23:16.337Z,5.63
2018-07-30T16:25:47.149Z,3.37
2018-07-30T16:28:17.717Z,3.20
2018-07-30T16:30:48.498Z,3.57
2018-07-30T16:33:19.634Z,3.50
2018-07-30T16:35:50.381Z,3.60
2018-07-30T16:38:21.301Z,3.40
2018-07-30T16:40:52.009Z,4.57
2018-07-30T16:43:22.661Z,3.50
2018-07-30T16:45:53.367Z,3.87
2018-07-30T16:48:24.237Z,3.83
2018-07-30T16:50:54.938Z,3.33
2018-07-30T16:53:25.769Z,3.70
2018-07-30T16:55:56.241Z,3.60
2018-07-30T16:58:27.199Z,3.90
2018-07-30T17:00:57.893Z,3.60
2018-07-30T17:03:28.715Z,3.73
2018-07-30T17:05:59.482Z,4.30
2018-07-30T17:08:30.256Z,5.37
2018-07-30T17:11:00.810Z,4.30
2018-07-30T17:13:31.888Z,5.80
2018-07-30T17:16:02.528Z,4.63
2018-07-30T17:18:33.593Z,6.43
2018-07-30T17:21:04.181Z,4.20
2018-07-30T17:23:35.009Z,4.47
2018-07-30T17:26:05.569Z,4.37
2018-07-30T17:28:36.329Z,4.87
2018-07-30T17:31:06.932Z,3.63
2018-07-30T17:33:38.037Z,3.87
2018-07-30T17:36:08.651Z,4.97
2018-07-30T17:38:39.221Z,4.00
2018-07-30T17:41:09.981Z,3.97
2018-07-30T17:43:40.835Z,5.77
2018-07-30T17:46:11.642Z,4.87
2018-07-30T17:48:42.369Z,4.03
2018-07-30T17:51:13.014Z,5.07
2018-07-30T17:53:43.397Z,4.47
2018-07-30T17:56:14.157Z,10.87
2018-07-30T17:58:45.146Z,7.67
2018-07-30T18:01:15.786Z,6.40
2018-07-30T18:03:46.521Z,6.00
2018-07-30T18:06:17.036Z,6.00
2018-07-30T18:08:47.904Z,5.67
2018-07-30T18:11:18.524Z,7.50
2018-07-30T18:13:49.264Z,5.87
2018-07-30T18:16:19.920Z,7.43
2018-07-30T18:18:50.608Z,10.87
2018-07-30T18:21:21.080Z,5.90
2018-07-30T18:23:52.074Z,10.40
2018-07-30T18:26:22.716Z,9.27
2018-07-30T18:28:53.980Z,9.83
2018-07-30T18:31:24.598Z,8.23
2018-07-30T18:33:55.336Z,6.13
2018-07-30T18:36:25.961Z,7.70
2018-07-30T18:38:56.569Z,8.03
2018-07-30T18:41:27.158Z,9.20
2018-07-30T18:43:57.962Z,11.17
2018-07-30T18:46:28.681Z,10.33
2018-07-30T18:48:59.266Z,14.03
2018-07-30T18:51:29.938Z,8.77
2018-07-30T18:54:00.777Z,11.87
2018-07-30T18:56:31.430Z,12.03
2018-07-30T18:59:02.314Z,6.17
2018-07-30T19:01:33.025Z,6.40
2018-07-30T19:04:03.837Z,7.47
2018-07-30T19:06:34.597Z,6.50
2018-07-30T19:09:06.822Z,7.23
2018-07-30T19:11:37.448Z,6.30
2018-07-30T19:14:08.500Z,6.17
2018-07-30T19:16:38.960Z,6.47
2018-07-30T19:19:09.745Z,7.67
2018-07-30T19:21:40.483Z,5.93
2018-07-30T19:24:11.292Z,6.07
2018-07-30T19:26:42.010Z,6.23
2018-07-30T19:29:12.930Z,6.90
2018-07-30T19:31:43.029Z,7.53
2018-07-30T19:34:13.740Z,9.57
2018-07-30T19:36:44.416Z,6.57
2018-07-30T19:39:15.113Z,7.70
2018-07-30T19:41:45.780Z,8.60
2018-07-30T19:44:16.673Z,8.93
2018-07-30T19:46:47.348Z,8.57
2018-07-30T19:49:18.501Z,7.13
2018-07-30T19:51:49.131Z,7.70
2018-07-30T19:54:19.724Z,8.83
2018-07-30T19:56:50.385Z,6.53
2018-07-30T19:59:21.273Z,9.13
2018-07-30T20:01:52.013Z,6.77
2018-07-30T20:04:22.736Z,6.43
2018-07-30T20:06:53.431Z,8.93
2018-07-30T20:09:24.214Z,8.20
2018-07-30T20:11:54.791Z,8.80
2018-07-30T20:14:25.453Z,9.33
2018-07-30T20:16:56.222Z,7.63
2018-07-30T20:19:27.173Z,10.57
2018-07-30T20:21:57.730Z,7.63
2018-07-30T20:24:28.618Z,9.17
2018-07-30T20:26:59.201Z,7.93
2018-07-30T20:29:30.358Z,8.90
2018-07-30T20:32:01.024Z,7.90
2018-07-30T20:34:31.762Z,8.77
2018-07-30T20:37:02.515Z,7.43
2018-07-30T20:39:33.186Z,9.30
2018-07-30T20:42:03.714Z,9.70
2018-07-30T20:44:34.380Z,8.13
2018-07-30T20:47:05.109Z,6.47
2018-07-30T20:49:35.797Z,7.20
2018-07-30T20:52:06.441Z,7.40
2018-07-30T20:54:38.189Z,7.93
2018-07-30T20:57:08.769Z,8.00
2018-07-30T20:59:39.504Z,6.87
2018-07-30T21:02:10.349Z,6.60
2018-07-30T21:04:41.100Z,7.27
2018-07-30T21:07:11.690Z,8.13
2018-07-30T21:09:42.164Z,6.60
2018-07-30T21:12:12.831Z,7.43
2018-07-30T21:14:43.749Z,9.30
2018-07-30T21:17:14.489Z,7.17
2018-07-30T21:19:45.414Z,6.93
2018-07-30T21:22:16.065Z,9.43
2018-07-30T21:24:46.341Z,7.10
2018-07-30T21:27:17.054Z,6.83
2018-07-30T21:29:47.873Z,8.60
2018-07-30T21:32:18.568Z,7.87
2018-07-30T21:34:49.352Z,7.67
2018-07-30T21:37:19.905Z,7.43
2018-07-30T21:39:51.412Z,8.50
2018-07-30T21:42:22.079Z,9.50
2018-07-30T21:44:52.924Z,10.47
2018-07-30T21:47:23.496Z,10.50
2018-07-30T21:49:54.156Z,8.00
2018-07-30T21:52:24.740Z,9.60
2018-07-30T21:54:55.685Z,7.40
2018-07-30T21:57:26.425Z,7.33
2018-07-30T21:59:57.329Z,8.57
2018-07-30T22:02:28.016Z,7.73
2018-07-30T22:04:58.681Z,7.53
2018-07-30T22:07:29.352Z,8.00
2018-07-30T22:10:00.351Z,7.53
2018-07-30T22:12:30.989Z,6.30
2018-07-30T22:15:01.978Z,7.20
2018-07-30T22:17:32.252Z,5.60
2018-07-30T22:20:03.061Z,7.37
2018-07-30T22:22:33.748Z,5.80
2018-07-30T22:25:04.693Z,6.97
2018-07-30T22:27:35.320Z,5.77
2018-07-30T22:30:08.415Z,5.77
2018-07-30T22:32:39.039Z,6.33
2018-07-30T22:35:11.088Z,5.73
2018-07-30T22:37:41.690Z,5.77
2018-07-30T22:40:12.441Z,7.83
2018-07-30T22:42:43.176Z,7.60
2018-07-30T22:45:13.789Z,6.37
2018-07-30T22:47:44.497Z,5.27
2018-07-30T22:50:15.412Z,7.70
2018-07-30T22:52:46.194Z,6.17
2018-07-30T22:55:16.964Z,6.40
2018-07-30T22:57:47.168Z,5.73
2018-07-30T23:00:17.767Z,5.10
2018-07-30T23:02:48.452Z,4.90
2018-07-30T23:05:20.904Z,5.40
2018-07-30T23:07:51.765Z,4.47
2018-07-30T23:10:22.752Z,6.07
2018-07-30T23:12:53.289Z,6.10
2018-07-30T23:15:24.021Z,5.20
2018-07-30T23:17:54.753Z,4.87
2018-07-30T23:20:25.592Z,4.47
2018-07-30T23:22:56.382Z,5.83
2018-07-30T23:25:27.184Z,5.87
2018-07-30T23:27:57.708Z,8.77
2018-07-30T23:30:28.373Z,4.57
2018-07-30T23:32:58.849Z,5.73
2018-07-30T23:35:30.381Z,5.47
2018-07-30T23:38:00.978Z,6.27
2018-07-30T23:40:31.672Z,8.87
2018-07-30T23:43:02.340Z,6.53
2018-07-30T23:45:33.172Z,6.50
2018-07-30T23:48:03.816Z,6.23
2018-07-30T23:50:34.540Z,7.37
2018-07-30T23:53:05.360Z,6.33
2018-07-30T23:55:36.096Z,9.20
2018-07-30T23:58:06.833Z,5.73
